Latest Weather Observations for Truscott

IDW60801

Issued at 6:35 pm WST Monday 21 April 2014 (issued every 30 minutes, with the page automatically refreshed every 10 minutes)

About weather observations | Map of weather stations | Latest weather observations for WA | Other Formats
Station Details ID: 001020 Name: TRUSCOTT Lat: -14.09 Lon: 126.39 Height: 51.0 m
Data from the previous 72 hours. | See also: Recent months at Truscott
Date/Time
WST
Temp
°C
App
Temp
°C
Dew
Point
Rel
Hum
%
Delta-T
°C
Wind Press
QNH
hPa
Press
MSL
hPa
Rain
since 9 am
mm
Dir
 
Spd
km/h
Gust
km/h
Spd
kts
Gust
kts
21/06:30pm 25.0 25.6 21.0 78 2.6 S 19 22 10 12 1011.0 - 0.0
21/06:00pm 28.0 29.1 22.0 70 4.0 SE 19 24 10 13 1010.0 1010.3 0.0
21/05:30pm 30.0 32.6 22.0 62 5.4 NE 11 - 6 - 1010.0 - 0.0
21/05:00pm 31.0 32.1 22.0 58 6.1 NE 19 - 10 - 1009.0 - 0.0
21/04:30pm 31.0 32.4 21.0 55 6.7 NE 15 - 8 - 1009.0 - 0.0
21/04:00pm 31.0 33.8 23.0 62 5.5 N 13 - 7 - 1009.0 - 0.0
21/03:30pm 32.0 32.9 20.0 49 8.0 N 15 - 8 - 1008.0 - 0.0
21/03:00pm 31.8 31.9 19.1 47 8.3 N 17 - 9 - 1008.0 1008.0 0.0
21/02:30pm 33.0 32.9 17.0 38 10.2 ENE 13 - 7 - 1008.0 - 0.0
21/02:00pm 34.0 33.2 15.0 32 11.8 E 13 - 7 - 1008.0 - 0.0
21/01:30pm 34.0 33.2 15.0 32 11.8 ENE 13 - 7 - 1008.0 - 0.0
21/01:00pm 34.0 32.8 15.0 32 11.8 NE 15 - 8 - 1009.0 - 0.0
21/12:30pm 33.0 31.8 15.0 33 11.1 ENE 15 - 8 - 1009.0 - 0.0
21/12:00pm 33.2 31.9 14.8 33 11.4 E 15 - 8 - 1009.0 1009.0 0.0
21/11:30am 33.0 32.2 15.0 33 11.1 ESE 13 - 7 - 1009.0 - 0.0
21/11:00am 33.0 31.8 15.0 33 11.1 SE 15 - 8 - 1010.0 - 0.0
21/10:30am 32.0 30.4 14.0 33 11.0 ESE 15 19 8 10 1010.0 - 0.0
21/10:00am 32.0 30.1 13.0 31 11.4 ESE 15 - 8 - 1011.0 - 0.0
21/09:30am 32.0 31.2 14.0 33 10.9 SE 11 - 6 - 1011.0 - 0.0
21/09:00am 30.6 29.6 14.7 38 9.7 SSE 13 - 7 - 1011.0 1010.9 0.0
21/08:30am 30.0 29.9 16.0 42 8.7 SSE 11 15 6 8 1011.0 - 0.0
21/08:00am 29.0 30.5 19.0 54 6.5 SSE 9 - 5 - 1011.0 - 0.0
21/07:30am 28.0 29.5 19.0 58 5.8 S 9 - 5 - 1011.0 - 0.0
21/07:00am 27.0 27.7 18.0 58 5.7 SSW 11 - 6 - 1011.0 - 0.0
21/06:30am 25.0 26.9 19.0 69 3.8 S 7 - 4 - 1010.0 - 0.0
21/06:00am 24.3 25.3 17.8 67 4.1 S 9 - 5 - 1010.0 1009.9 0.0
21/05:30am 24.0 25.5 18.0 69 3.8 S 7 - 4 - 1010.0 - 0.0
21/05:00am 24.0 25.5 18.0 69 3.8 S 7 - 4 - 1010.0 - 0.0
21/04:30am 24.0 25.5 19.0 73 3.2 S 9 - 5 - 1009.0 - 0.0
21/04:00am 24.0 25.9 19.0 73 3.2 SSW 7 - 4 - 1009.0 - 0.0
21/03:30am 24.0 26.4 20.0 78 2.6 WSW 7 - 4 - 1009.0 - 0.0
21/03:00am 24.1 26.8 20.2 79 2.5 SW 6 - 3 - 1009.0 1009.0 0.0
21/02:30am 24.0 26.4 20.0 78 2.6 SSE 7 - 4 - 1009.0 - 0.0
21/02:00am 24.0 26.4 20.0 78 2.6 SE 7 - 4 - 1009.0 - 0.0
21/01:30am 24.0 26.4 20.0 78 2.6 SE 7 - 4 - 1009.0 - 0.0
21/01:00am 25.0 27.9 21.0 78 2.6 SE 7 - 4 - 1009.0 - 0.0
21/12:30am 25.0 27.9 21.0 78 2.6 SE 7 - 4 - 1010.0 - 0.0
21/12:00am 24.9 28.4 22.2 85 1.8 ESE 7 7 4 4 1010.0 1009.6 0.0
 
Date/Time
WST
Temp
°C
App
Temp
°C
Dew
Point
Rel
Hum
%
Delta-T
°C
Wind Press
QNH
hPa
Press
MSL
hPa
Rain
since 9 am
mm
Dir
 
Spd
km/h
Gust
km/h
Spd
kts
Gust
kts
20/11:30pm 26.0 29.4 22.0 78 2.7 E 7 - 4 - 1010.0 - 0.0
20/11:00pm 26.0 29.4 22.0 78 2.7 E 7 - 4 - 1010.0 - 0.0
20/10:30pm 27.0 30.0 22.0 74 3.4 E 9 - 5 - 1010.0 - 0.0
20/10:00pm 27.0 29.5 21.0 69 4.0 ENE 9 - 5 - 1010.0 - 0.0
20/09:30pm 27.0 29.0 20.0 65 4.6 ENE 9 - 5 - 1010.0 - 0.0
20/09:00pm 27.5 29.6 20.1 64 4.9 ENE 9 - 5 - 1011.0 1010.5 0.0
20/08:30pm 27.0 29.5 21.0 69 4.0 ENE 9 - 5 - 1011.0 - 0.0
20/08:00pm 28.0 30.5 21.0 65 4.7 ENE 9 - 5 - 1010.0 - 0.0
20/07:30pm 28.0 31.0 22.0 70 4.0 ENE 9 - 5 - 1010.0 - 0.0
20/07:00pm 28.0 31.0 22.0 70 4.0 ENE 9 - 5 - 1010.0 - 0.0
20/06:30pm 29.0 31.1 21.0 62 5.3 NE 11 - 6 - 1009.0 - 0.0
20/06:00pm 28.8 31.1 21.3 64 5.0 NE 11 - 6 - 1009.0 1008.9 0.0
20/05:30pm 29.0 31.1 21.0 62 5.3 NE 11 - 6 - 1009.0 - 0.0
20/05:00pm 30.0 31.2 20.0 55 6.6 NE 13 - 7 - 1008.0 - 0.0
20/04:30pm 31.0 32.2 20.0 52 7.3 NE 13 - 7 - 1008.0 - 0.0
20/04:00pm 32.0 32.5 20.0 49 8.0 NE 17 - 9 - 1008.0 - 0.0
20/03:30pm 32.0 32.4 19.0 46 8.5 ENE 15 - 8 - 1007.0 - 0.0
20/03:00pm 32.3 32.4 19.2 46 8.6 NE 17 - 9 - 1007.0 1007.3 0.0
20/02:30pm 32.0 32.9 20.0 49 8.0 ENE 15 - 8 - 1007.0 - 0.0
20/02:00pm 33.0 33.5 20.0 46 8.6 ENE 17 - 9 - 1007.0 - 0.0
20/01:30pm 33.0 33.4 19.0 43 9.2 NE 15 - 8 - 1008.0 - 0.0
20/01:00pm 33.0 34.2 20.0 46 8.6 E 13 - 7 - 1008.0 - 0.0
20/12:30pm 33.0 33.0 19.0 43 9.2 E 17 - 9 - 1008.0 - 0.0
20/12:00pm 32.4 33.6 20.0 48 8.2 E 13 - 7 - 1009.0 1008.6 0.0
20/11:30am 32.0 32.5 20.0 49 8.0 E 17 - 9 - 1009.0 - 0.0
20/11:00am 31.0 31.5 20.0 52 7.3 E 17 - 9 - 1010.0 - 0.0
20/10:30am 31.0 31.1 20.0 52 7.3 E 19 - 10 - 1010.0 - 0.0
20/10:00am 30.0 29.9 20.0 55 6.6 E 20 - 11 - 1011.0 - 0.0
20/09:30am 30.0 30.5 20.0 55 6.6 E 17 - 9 - 1011.0 - 0.0
20/09:00am 30.0 28.8 17.1 46 8.2 E 19 - 10 - 1011.0 1010.9 0.0
20/08:30am 29.0 27.0 14.0 39 9.0 ESE 17 - 9 - 1011.0 - 0.0
20/08:00am 29.0 27.1 13.0 37 9.5 ESE 15 - 8 - 1011.0 - 0.0
20/07:30am 28.0 26.5 13.0 39 8.8 ESE 13 - 7 - 1011.0 - 0.0
20/07:00am 28.0 26.2 12.0 37 9.3 ESE 13 - 7 - 1010.0 - 0.0
20/06:30am 27.0 25.5 12.0 39 8.7 SE 11 - 6 - 1010.0 - 0.0
20/06:00am 25.7 24.4 12.5 44 7.6 SE 11 - 6 - 1010.0 1009.6 0.0
20/05:30am 25.0 24.2 13.0 47 7.0 SE 9 - 5 - 1009.0 - 0.0
20/05:00am 26.0 25.2 13.0 44 7.6 SE 9 - 5 - 1009.0 - 0.0
20/04:30am 26.0 25.6 14.0 47 7.1 SE 9 - 5 - 1009.0 - 0.0
20/04:00am 26.0 25.6 14.0 47 7.1 SE 9 - 5 - 1009.0 - 0.0
20/03:30am 26.0 25.6 14.0 47 7.1 SSE 9 - 5 - 1008.0 - 0.0
20/03:00am 25.7 25.9 15.7 54 6.1 SSE 9 - 5 - 1008.0 1008.4 0.0
20/02:30am 26.0 26.3 16.0 54 6.1 SSE 9 - 5 - 1009.0 - 0.0
20/02:21am 25.0 25.7 17.0 61 5.0 SSE 9 - 5 - 1009.0 - 0.0
20/02:09am 25.0 26.1 17.0 61 5.0 SE 7 - 4 - 1009.0 - 0.0
20/02:00am 26.0 27.1 17.0 57 5.6 SE 7 - 4 - 1009.0 - 0.0
20/01:30am 25.0 26.5 18.0 65 4.4 SE 7 - 4 - 1009.0 - 0.0
20/01:00am 25.0 26.9 19.0 69 3.8 SE 7 - 4 - 1009.0 - 0.0
20/12:30am 25.0 26.9 19.0 69 3.8 SSE 7 - 4 - 1009.0 - 0.0
20/12:00am 24.7 27.2 19.8 74 3.2 SSE 6 - 3 - 1010.0 1009.8 0.0
 
Date/Time
WST
Temp
°C
App
Temp
°C
Dew
Point
Rel
Hum
%
Delta-T
°C
Wind Press
QNH
hPa
Press
MSL
hPa
Rain
since 9 am
mm
Dir
 
Spd
km/h
Gust
km/h
Spd
kts
Gust
kts
19/11:30pm 25.0 27.4 20.0 74 3.2 SSE 7 - 4 - 1010.0 - 0.0
19/11:00pm 25.0 28.1 21.0 78 2.6 SE 6 - 3 - 1010.0 - 0.0
19/10:30pm 25.0 27.6 20.0 74 3.2 SE 6 - 3 - 1010.0 - 0.0
19/10:00pm 26.0 29.1 21.0 74 3.3 SE 6 - 3 - 1010.0 - 0.0
19/09:30pm 27.0 30.1 21.0 69 4.0 ESE 6 - 3 - 1010.0 - 0.0
19/09:00pm 26.7 29.7 21.2 72 3.7 ESE 7 - 4 - - - 0.0
19/08:30pm 27.0 29.9 21.0 69 4.0 E 7 - 4 - - - 0.0
19/08:00pm 26.0 29.1 21.0 74 3.3 E 6 - 3 - - - 0.0
19/07:30pm 27.0 30.1 21.0 69 4.0 ENE 6 - 3 - 1010.0 - 0.0
19/07:00pm 28.0 30.9 21.0 65 4.7 NE 7 - 4 - 1010.0 - 0.0
19/06:30pm 27.0 30.1 21.0 69 4.0 NE 6 - 3 - 1009.0 - 0.0
19/06:00pm 28.9 31.7 20.4 60 5.6 NE 6 - 3 - 1009.0 1008.9 0.0
19/05:30pm 30.0 32.4 20.0 55 6.6 ENE 7 - 4 - 1009.0 - 0.0
19/05:00pm 31.0 32.2 19.0 48 7.8 ENE 11 - 6 - 1008.0 - 0.0
19/04:30pm 32.0 32.0 19.0 46 8.5 E 17 - 9 - 1008.0 - 0.0
19/04:00pm 32.0 32.5 20.0 49 8.0 E 17 - 9 - 1008.0 - 0.0
19/03:30pm 32.0 33.4 21.0 52 7.4 ENE 15 - 8 - 1008.0 - 0.0
19/03:00pm 32.6 33.2 21.1 50 7.8 ENE 19 - 10 - 1007.0 1007.2 0.0
19/02:30pm 33.0 33.5 20.0 46 8.6 ENE 17 - 9 - 1007.0 - 0.0
19/02:00pm 34.0 34.4 19.0 41 9.9 ENE 15 - 8 - 1007.0 - 0.0
19/01:30pm 34.0 34.1 20.0 43 9.3 ENE 19 - 10 - 1008.0 - 0.0
19/01:00pm 33.0 33.5 20.0 46 8.6 E 17 - 9 - 1008.0 - 0.0
19/12:30pm 33.0 32.6 19.0 43 9.2 E 19 - 10 - 1008.0 - 0.0
19/12:00pm 32.8 33.8 20.3 47 8.3 E 15 - 8 - 1009.0 1008.7 0.0
19/11:30am 32.0 33.4 21.0 52 7.4 E 15 - 8 - 1009.0 - 0.0
19/11:00am 32.0 33.4 21.0 52 7.4 ESE 15 - 8 - 1010.0 - 0.0
19/10:30am 31.0 31.5 20.0 52 7.3 ESE 17 - 9 - 1010.0 - 0.0
19/10:00am 31.0 32.0 21.0 55 6.7 E 17 - 9 - 1011.0 - 0.0
19/09:30am 31.0 33.3 22.0 58 6.1 ESE 13 - 7 - 1011.0 - 0.0
19/09:00am 29.6 29.7 18.4 51 7.2 E 15 - 8 - 1011.0 1011.3 0.0
19/08:30am 29.0 28.2 16.0 45 8.1 ESE 15 - 8 - 1011.0 - 0.0
19/08:00am 28.0 27.9 16.0 48 7.4 ESE 11 - 6 - 1011.0 - 0.0
19/07:30am 27.0 27.3 16.0 51 6.8 SE 9 - 5 - - - 0.0
19/07:00am 26.0 27.1 17.0 57 5.6 ESE 7 - 4 - 1011.0 - 0.0
19/06:30am 26.0 27.3 17.0 57 5.6 SE 6 - 3 - 1011.0 - 0.0
19/06:00am 26.3 27.5 17.4 58 5.6 SE 7 - 4 - 1011.0 1010.8 0.0
19/05:30am 26.0 27.1 17.0 57 5.6 ESE 7 - 4 - 1011.0 - 0.0
19/05:00am 27.0 27.3 17.0 54 6.2 ESE 11 - 6 - 1010.0 - 0.0
19/04:30am 27.0 27.7 17.0 54 6.2 SE 9 - 5 - 1010.0 - 0.0
19/04:00am 25.0 28.3 19.0 69 3.8 CALM 0 - 0 - 1010.0 - 0.0
19/03:30am 26.0 30.2 21.0 74 3.3 CALM 0 - 0 - 1010.0 - 0.0
19/03:00am 26.4 29.6 19.8 67 4.3 SSW 2 - 1 - 1010.0 1010.0 0.0
19/02:30am 26.0 28.6 20.0 69 3.9 SSW 6 - 3 - 1010.0 - 0.0
19/02:00am 27.0 29.6 20.0 65 4.6 SSW 6 - 3 - 1010.0 - 0.0
19/01:30am 27.0 29.4 20.0 65 4.6 S 7 - 4 - 1010.0 - 0.0
19/01:00am 28.0 30.4 20.0 61 5.2 S 7 - 4 - 1010.0 - 0.0
19/12:30am 28.0 30.4 20.0 61 5.2 S 7 - 4 - 1011.0 - 0.0
19/12:00am 27.7 29.9 20.5 65 4.7 S 9 - 5 - 1011.0 1010.8 0.0
 
Date/Time
WST
Temp
°C
App
Temp
°C
Dew
Point
Rel
Hum
%
Delta-T
°C
Wind Press
QNH
hPa
Press
MSL
hPa
Rain
since 9 am
mm
Dir
 
Spd
km/h
Gust
km/h
Spd
kts
Gust
kts
18/11:30pm 28.0 31.4 22.0 70 4.0 SSE 7 - 4 - 1011.0 - 0.0
18/11:00pm 27.0 30.4 22.0 74 3.4 SSE 7 - 4 - 1011.0 - 0.0
18/10:30pm 27.0 30.6 22.0 74 3.4 SE 6 - 3 - 1012.0 - 0.0
18/10:00pm 27.0 30.6 22.0 74 3.4 E 6 - 3 - 1012.0 - 0.0
18/09:30pm 27.0 30.6 22.0 74 3.4 ESE 6 - 3 - 1012.0 - 0.0
18/09:00pm 27.0 30.4 21.7 73 3.5 ESE 6 - 3 - 1012.0 1011.7 0.0
18/08:30pm 28.0 31.6 22.0 70 4.0 ESE 6 - 3 - 1012.0 - 0.0
18/08:00pm 29.0 32.1 21.0 62 5.3 E 6 - 3 - 1012.0 - 0.0
18/07:30pm 29.0 31.9 21.0 62 5.3 E 7 - 4 - 1011.0 - 0.0
18/07:00pm 30.0 32.5 21.0 58 6.0 E 9 - 5 - 1011.0 - 0.0

Other Formats:

Comma delimited format used in spreadsheet applications
http://www.bom.gov.au/fwo/IDW60801/IDW60801.95101.axf

JavaScript Object Notation format (JSON) in row-major order
http://www.bom.gov.au/fwo/IDW60801/IDW60801.95101.json